createdAt,value
2022-11-04T00:00:51.217Z,100008.09
2022-11-04T00:03:18.125Z,100016.19
2022-11-04T00:05:45.064Z,100018.91
2022-11-04T00:08:26.952Z,100015.53
2022-11-04T00:11:16.114Z,100002.50
2022-11-04T00:13:43.458Z,100009.72
2022-11-04T00:16:29.760Z,99998.50
2022-11-04T00:18:57.093Z,99997.66
2022-11-04T00:21:42.645Z,100004.00
2022-11-04T00:24:50.709Z,100011.94
2022-11-04T00:27:40.398Z,100005.19
2022-11-04T00:30:10.087Z,100005.41
2022-11-04T00:32:55.779Z,100016.22
2022-11-04T00:35:22.919Z,100017.19
2022-11-04T00:37:49.838Z,100026.19
2022-11-04T00:40:18.644Z,100020.22
2022-11-04T00:42:46.968Z,100022.03
2022-11-04T00:45:14.067Z,100014.28
2022-11-04T00:47:40.995Z,100017.06
2022-11-04T00:50:08.510Z,100018.72
2022-11-04T00:52:35.381Z,100024.22
2022-11-04T00:55:02.293Z,100028.72
2022-11-04T00:57:29.509Z,100029.66
2022-11-04T00:59:56.370Z,100029.00
2022-11-04T01:02:23.693Z,100024.56
2022-11-04T01:04:50.831Z,100036.22
2022-11-04T01:07:17.726Z,100040.66
2022-11-04T01:09:44.602Z,100040.78
2022-11-04T01:12:11.511Z,100049.78
2022-11-04T01:14:38.345Z,100039.59
2022-11-04T01:17:05.203Z,100046.47
2022-11-04T01:19:32.056Z,100046.69
2022-11-04T01:21:58.969Z,100044.16
2022-11-04T01:24:26.186Z,100042.47
2022-11-04T01:26:53.007Z,100046.06
2022-11-04T01:29:19.918Z,100053.25
2022-11-04T01:31:46.739Z,100055.91
2022-11-04T01:34:13.664Z,100056.88
2022-11-04T01:36:40.521Z,100064.06
2022-11-04T01:39:07.373Z,100065.94
2022-11-04T01:41:34.783Z,100078.25
2022-11-04T01:44:04.062Z,100069.56
2022-11-04T01:46:39.741Z,100079.38
2022-11-04T01:49:35.804Z,100084.78
2022-11-04T01:52:11.159Z,100088.38
2022-11-04T01:54:40.670Z,100081.41
2022-11-04T01:57:14.987Z,100087.63
2022-11-04T01:59:42.841Z,100092.09
2022-11-04T02:02:10.246Z,100098.34
2022-11-04T02:04:38.623Z,100094.94
2022-11-04T02:07:08.289Z,100088.81
2022-11-04T02:09:37.245Z,100097.69
2022-11-04T02:12:22.956Z,100101.69
2022-11-04T02:14:50.792Z,100118.97
2022-11-04T02:17:20.496Z,100123.50
2022-11-04T02:20:02.565Z,100131.44
2022-11-04T02:22:51.055Z,100130.69
2022-11-04T02:26:07.153Z,100137.88
2022-11-04T02:28:48.975Z,100133.84
2022-11-04T02:31:46.900Z,100139.78
2022-11-04T02:34:34.329Z,100142.53
2022-11-04T02:37:04.554Z,100144.31
2022-11-04T02:39:43.469Z,100145.28
2022-11-04T02:42:31.144Z,100153.31
2022-11-04T02:44:57.925Z,100151.63
2022-11-04T02:47:29.098Z,100154.34
2022-11-04T02:49:59.759Z,100151.72
2022-11-04T02:52:33.891Z,100152.69
2022-11-04T02:55:13.731Z,100157.13
2022-11-04T02:57:43.488Z,100150.22
2022-11-04T03:00:13.612Z,100145.22
2022-11-04T03:02:44.667Z,100152.88
2022-11-04T03:05:16.633Z,100152.94
2022-11-04T03:07:46.926Z,100160.06
2022-11-04T03:10:30.610Z,100159.22
2022-11-04T03:13:05.688Z,100157.63
2022-11-04T03:15:35.640Z,100147.97
2022-11-04T03:18:18.109Z,100134.78
2022-11-04T03:23:16.137Z,100168.19
2022-11-04T03:25:46.874Z,100158.56
2022-11-04T03:28:46.762Z,100164.78
2022-11-04T03:31:23.822Z,100161.38
2022-11-04T03:33:55.320Z,100152.81
2022-11-04T03:36:23.790Z,100164.88
2022-11-04T03:38:52.840Z,100165.94
2022-11-04T03:41:50.861Z,100160.75
2022-11-04T03:44:17.680Z,100172.28
2022-11-04T03:46:44.604Z,100171.41
2022-11-04T03:49:12.569Z,100176.72
2022-11-04T03:51:39.445Z,100172.34
2022-11-04T03:54:07.393Z,100182.94
2022-11-04T03:56:42.904Z,100179.47
2022-11-04T03:59:21.786Z,100181.25
2022-11-04T04:02:00.962Z,100181.34
2022-11-04T04:04:32.248Z,100182.19
2022-11-04T04:07:04.524Z,100192.88
2022-11-04T04:09:42.487Z,100185.88
2022-11-04T04:12:30.726Z,100187.66
2022-11-04T04:15:08.591Z,100182.50
2022-11-04T04:17:43.623Z,100180.69
2022-11-04T04:20:15.502Z,100180.69
2022-11-04T04:22:48.540Z,100186.00
2022-11-04T04:25:35.792Z,100179.09
2022-11-04T04:28:04.558Z,100193.16
2022-11-04T04:30:31.981Z,100202.03
2022-11-04T04:33:04.961Z,100202.03
2022-11-04T04:35:44.178Z,100196.75
2022-11-04T04:38:36.258Z,100201.19
2022-11-04T04:41:29.023Z,100202.91
2022-11-04T04:44:16.062Z,100203.72
2022-11-04T04:46:45.497Z,100202.03
2022-11-04T04:49:12.598Z,100205.63
2022-11-04T04:51:43.412Z,100206.59
2022-11-04T04:54:10.666Z,100212.81
2022-11-04T04:56:38.129Z,100219.81
2022-11-04T04:59:05.363Z,100223.38
2022-11-04T05:01:32.808Z,100229.59
2022-11-04T05:03:59.724Z,100229.91
2022-11-04T05:06:27.010Z,100242.94
2022-11-04T05:08:53.881Z,100238.50
2022-11-04T05:11:24.346Z,100239.44
2022-11-04T05:13:54.442Z,100236.78
2022-11-04T05:16:21.583Z,100243.06
2022-11-04T05:18:48.449Z,100248.34
2022-11-04T05:21:16.284Z,100243.06
2022-11-04T05:23:43.137Z,100257.09
2022-11-04T05:26:10.476Z,100254.56
2022-11-04T05:28:37.355Z,100258.06
2022-11-04T05:31:06.126Z,100250.38
2022-11-04T05:33:33.364Z,100262.56
2022-11-04T05:36:15.550Z,100274.00
2022-11-04T05:38:43.391Z,100275.78
2022-11-04T05:41:12.621Z,100278.16
2022-11-04T05:43:39.561Z,100276.09
2022-11-04T05:46:06.399Z,100268.91
2022-11-04T05:48:37.773Z,100275.91
2022-11-04T05:51:07.213Z,100282.31
2022-11-04T05:53:34.059Z,100278.91
2022-11-04T05:56:00.923Z,100284.31
2022-11-04T05:58:27.737Z,100284.31
2022-11-04T06:00:54.571Z,100289.69
2022-11-04T06:03:21.507Z,100291.47
2022-11-04T06:05:48.407Z,100280.88
2022-11-04T06:08:15.319Z,100290.41
2022-11-04T06:10:43.752Z,100291.09
2022-11-04T06:13:10.672Z,100290.06
2022-11-04T06:15:37.518Z,100292.50
2022-11-04T06:18:04.466Z,100290.44
2022-11-04T06:20:31.323Z,100293.81
2022-11-04T06:22:58.194Z,100292.88
2022-11-04T06:25:25.036Z,100294.38
2022-11-04T06:27:51.927Z,100302.41
2022-11-04T06:30:18.798Z,100281.44
2022-11-04T06:32:45.654Z,100290.97
2022-11-04T06:35:12.564Z,100296.38
2022-11-04T06:37:39.655Z,100301.13
2022-11-04T06:40:07.460Z,100304.50
2022-11-04T06:42:34.308Z,100296.47
2022-11-04T06:45:01.130Z,100301.56
2022-11-04T06:47:28.008Z,100300.63
2022-11-04T06:49:54.825Z,100306.84
2022-11-04T06:52:21.668Z,100307.53
2022-11-04T06:54:48.549Z,100319.22
2022-11-04T06:57:15.479Z,100321.41
2022-11-04T06:59:42.299Z,100331.59
2022-11-04T07:02:11.766Z,100327.72
2022-11-04T07:04:38.850Z,100341.50
2022-11-04T07:07:05.721Z,100336.88
2022-11-04T07:09:32.614Z,100327.03
2022-11-04T07:11:59.465Z,100331.41
2022-11-04T07:14:26.535Z,100330.34
2022-11-04T07:16:53.397Z,100330.25
2022-11-04T07:19:20.441Z,100328.25
2022-11-04T07:21:47.321Z,100324.56
2022-11-04T07:24:14.303Z,100317.56
2022-11-04T07:26:42.793Z,100319.16
2022-11-04T07:29:11.413Z,100315.59
2022-11-04T07:31:38.642Z,100313.59
2022-11-04T07:34:05.817Z,100304.69
2022-11-04T07:36:32.881Z,100312.44
2022-11-04T07:38:59.791Z,100308.31
2022-11-04T07:41:26.849Z,100311.69
2022-11-04T07:43:55.174Z,100309.16
2022-11-04T07:46:22.297Z,100315.38
2022-11-04T07:48:49.453Z,100323.63
2022-11-04T07:51:18.538Z,100320.03
2022-11-04T07:53:45.535Z,100324.25
2022-11-04T07:56:13.678Z,100320.69
2022-11-04T07:58:41.340Z,100322.41
2022-11-04T08:01:17.585Z,100324.00
2022-11-04T08:03:45.013Z,100326.66
2022-11-04T08:06:14.717Z,100331.94
2022-11-04T08:08:43.712Z,100331.94
2022-11-04T08:11:20.266Z,100326.09
2022-11-04T08:13:47.884Z,100326.84
2022-11-04T08:16:17.883Z,100329.47
2022-11-04T08:18:45.791Z,100332.13
2022-11-04T08:21:13.556Z,100340.06
2022-11-04T08:23:41.083Z,100343.56
2022-11-04T08:26:12.518Z,100353.31
2022-11-04T08:28:39.906Z,100352.34
2022-11-04T08:31:11.266Z,100354.97
2022-11-04T08:33:38.259Z,100354.97
2022-11-04T08:36:12.592Z,100356.88
2022-11-04T08:38:39.656Z,100360.28
2022-11-04T08:41:09.401Z,100374.38
2022-11-04T08:43:36.612Z,100365.56
2022-11-04T08:46:06.461Z,100364.75
2022-11-04T08:48:35.215Z,100364.81
2022-11-04T08:51:03.201Z,100364.75
2022-11-04T08:53:30.133Z,100369.25
2022-11-04T08:55:57.202Z,100378.53
2022-11-04T08:58:25.227Z,100379.66
2022-11-04T09:00:52.788Z,100382.72
2022-11-04T09:03:20.346Z,100388.75
2022-11-04T09:05:49.476Z,100387.72
2022-11-04T09:08:18.316Z,100378.66
2022-11-04T09:10:46.852Z,100372.06
2022-11-04T09:13:16.032Z,100377.06
2022-11-04T09:15:43.649Z,100378.53
2022-11-04T09:18:11.104Z,100368.63
2022-11-04T09:20:38.885Z,100375.63
2022-11-04T09:23:06.960Z,100366.09
2022-11-04T09:25:35.875Z,100372.88
2022-11-04T09:28:04.864Z,100386.13
2022-11-04T09:30:32.218Z,100385.19
2022-11-04T09:32:59.823Z,100382.41
2022-11-04T09:35:30.451Z,100383.28
2022-11-04T09:38:01.574Z,100380.53
2022-11-04T09:40:29.439Z,100378.66
2022-11-04T09:43:14.504Z,100373.56
2022-11-04T09:45:44.955Z,100384.59
2022-11-04T09:48:24.523Z,100387.22
2022-11-04T09:50:56.315Z,100388.09
2022-11-04T09:53:31.897Z,100396.59
2022-11-04T09:56:09.202Z,100392.03
2022-11-04T09:58:39.033Z,100399.97
2022-11-04T10:01:28.450Z,100401.81
2022-11-04T10:04:05.067Z,100399.03
2022-11-04T10:06:53.001Z,100395.47
2022-11-04T10:09:53.759Z,100404.16
2022-11-04T10:12:32.524Z,100405.75
2022-11-04T10:15:18.528Z,100407.16
2022-11-04T10:18:01.641Z,100398.47
2022-11-04T10:20:49.132Z,100397.50
2022-11-04T10:23:38.875Z,100400.91
2022-11-04T10:26:14.839Z,100390.63
2022-11-04T10:28:45.297Z,100403.09
2022-11-04T10:31:17.806Z,100413.03
2022-11-04T10:34:05.593Z,100406.97
2022-11-04T10:36:34.181Z,100408.78
2022-11-04T10:39:05.152Z,100415.97
2022-11-04T10:41:38.223Z,100410.78
2022-11-04T10:44:07.188Z,100409.06
2022-11-04T10:46:38.795Z,100401.81
2022-11-04T10:49:28.961Z,100402.63
2022-11-04T10:51:57.398Z,100411.34
2022-11-04T10:54:27.323Z,100404.16
2022-11-04T10:56:56.143Z,100401.38
2022-11-04T10:59:51.929Z,100402.25
2022-11-04T11:02:19.075Z,100409.25
2022-11-04T11:04:48.224Z,100411.72
2022-11-04T11:07:23.343Z,100404.72
2022-11-04T11:09:57.104Z,100410.75
2022-11-04T11:12:56.149Z,100404.59
2022-11-04T11:15:30.392Z,100398.47
2022-11-04T11:18:06.224Z,100404.41
2022-11-04T11:20:38.120Z,100399.13
2022-11-04T11:23:10.556Z,100401.69
2022-11-04T11:25:45.591Z,100399.78
2022-11-04T11:28:24.076Z,100403.16
2022-11-04T11:31:01.595Z,100404.13
2022-11-04T11:33:34.930Z,100408.38
2022-11-04T11:36:05.229Z,100412.09
2022-11-04T11:38:34.726Z,100408.66
2022-11-04T11:41:25.948Z,100419.06
2022-11-04T11:43:55.512Z,100416.09
2022-11-04T11:46:29.724Z,100409.78
2022-11-04T11:49:01.665Z,100404.69
2022-11-04T11:51:39.940Z,100410.94
2022-11-04T11:54:23.175Z,100408.16
2022-11-04T11:57:13.935Z,100417.53
2022-11-04T12:03:00.874Z,100416.44
2022-11-04T12:11:25.435Z,100421.03
2022-11-04T12:14:06.382Z,100402.78
2022-11-04T12:17:04.198Z,100421.81
2022-11-04T12:19:55.252Z,100420.00
2022-11-04T12:22:22.343Z,100425.22
2022-11-04T12:25:05.742Z,100418.13
2022-11-04T12:27:58.247Z,100416.31
2022-11-04T12:30:32.576Z,100410.94
2022-11-04T12:33:14.855Z,100411.69
2022-11-04T12:36:06.650Z,100405.44
2022-11-04T12:38:52.354Z,100400.97
2022-11-04T12:41:46.707Z,100404.47
2022-11-04T12:44:42.653Z,100410.75
2022-11-04T12:47:34.710Z,100407.78
2022-11-04T12:50:04.978Z,100424.53
2022-11-04T12:53:21.526Z,100429.84
2022-11-04T12:56:15.100Z,100435.03
2022-11-04T12:58:42.068Z,100431.53
2022-11-04T13:01:28.756Z,100434.94
2022-11-04T13:04:02.005Z,100440.44
2022-11-04T13:06:38.302Z,100436.25
2022-11-04T13:09:27.535Z,100437.00
2022-11-04T13:11:58.690Z,100427.88
2022-11-04T13:14:30.618Z,100430.41
2022-11-04T13:17:04.568Z,100437.22
2022-11-04T13:19:46.768Z,100442.72
2022-11-04T13:22:21.664Z,100445.81
2022-11-04T13:25:18.161Z,100443.94
2022-11-04T13:27:48.404Z,100444.81
2022-11-04T13:30:18.317Z,100414.63
2022-11-04T13:33:08.300Z,100450.75
2022-11-04T13:35:53.860Z,100433.16
2022-11-04T13:38:26.308Z,100439.41
2022-11-04T13:41:21.820Z,100438.56
2022-11-04T13:43:54.100Z,100433.34
2022-11-04T13:46:30.348Z,100427.19
2022-11-04T13:49:06.113Z,100421.88
2022-11-04T13:52:01.077Z,100415.72
2022-11-04T13:54:33.391Z,100416.59
2022-11-04T13:57:15.676Z,100414.88
2022-11-04T14:00:03.951Z,100416.69
2022-11-04T14:02:52.850Z,100419.53
2022-11-04T14:05:28.958Z,100418.69
2022-11-04T14:08:02.111Z,100427.56
2022-11-04T14:10:54.236Z,100423.13
2022-11-04T14:13:35.244Z,100425.88
2022-11-04T14:16:04.829Z,100435.50
2022-11-04T14:18:37.304Z,100433.25
2022-11-04T14:21:56.540Z,100436.97
2022-11-04T14:24:23.986Z,100447.25
2022-11-04T14:26:53.033Z,100446.50
2022-11-04T14:29:25.740Z,100446.69
2022-11-04T14:31:55.634Z,100454.63
2022-11-04T14:34:34.006Z,100451.22
2022-11-04T14:37:21.201Z,100432.91
2022-11-04T14:39:56.070Z,100458.41
2022-11-04T14:42:53.345Z,100458.59
2022-11-04T14:45:27.753Z,100464.06
2022-11-04T14:48:16.018Z,100462.56
2022-11-04T14:50:47.879Z,100465.91
2022-11-04T14:53:42.201Z,100471.38
2022-11-04T14:56:27.343Z,100474.00
2022-11-04T14:59:06.062Z,100471.44
2022-11-04T15:01:37.093Z,100477.72
2022-11-04T15:04:12.220Z,100476.97
2022-11-04T15:06:54.823Z,100478.75
2022-11-04T15:09:32.352Z,100482.31
2022-11-04T15:12:28.674Z,100486.00
2022-11-04T15:14:57.277Z,100477.03
2022-11-04T15:17:28.873Z,100481.22
2022-11-04T15:19:59.921Z,100475.91
2022-11-04T15:22:29.256Z,100479.94
2022-11-04T15:25:06.286Z,100479.69
2022-11-04T15:27:34.906Z,100487.25
2022-11-04T15:30:04.374Z,100502.09
2022-11-04T15:32:32.478Z,100494.91
2022-11-04T15:35:00.267Z,100501.88
2022-11-04T15:37:29.225Z,100503.59
2022-11-04T15:39:58.537Z,100503.50
2022-11-04T15:42:40.845Z,100495.38
2022-11-04T15:45:23.067Z,100508.38
2022-11-04T15:47:51.123Z,100503.81
2022-11-04T15:50:25.736Z,100506.28
2022-11-04T15:52:55.110Z,100504.38
2022-11-04T15:55:26.234Z,100509.94
2022-11-04T15:57:54.161Z,100518.19
2022-11-04T16:00:28.656Z,100513.72
2022-11-04T16:02:57.996Z,100513.81
2022-11-04T16:05:30.606Z,100518.19
2022-11-04T16:08:21.050Z,100509.06
2022-11-04T16:10:48.319Z,100513.13
2022-11-04T16:13:16.212Z,100521.75
2022-11-04T16:16:09.522Z,100510.75
2022-11-04T16:18:37.894Z,100515.56
2022-11-04T16:21:32.780Z,100501.16
2022-11-04T16:24:05.049Z,100511.91
2022-11-04T16:26:39.263Z,100516.91
2022-11-04T16:29:09.749Z,100512.94
2022-11-04T16:31:37.532Z,100509.84
2022-11-04T16:34:11.316Z,100519.31
2022-11-04T16:36:38.211Z,100518.91
2022-11-04T16:39:09.051Z,100513.31
2022-11-04T16:41:38.739Z,100513.00
2022-11-04T16:44:11.600Z,100512.63
2022-11-04T16:46:41.013Z,100518.47
2022-11-04T16:49:08.186Z,100513.16
2022-11-04T16:51:35.193Z,100518.81
2022-11-04T16:54:02.297Z,100523.91
2022-11-04T16:56:29.366Z,100518.41
2022-11-04T16:58:56.261Z,100520.84
2022-11-04T17:01:23.300Z,100524.25
2022-11-04T17:03:50.564Z,100529.16
2022-11-04T17:06:17.839Z,100531.03
2022-11-04T17:08:45.113Z,100541.44
2022-11-04T17:11:13.070Z,100541.34
2022-11-04T17:13:40.150Z,100547.50
2022-11-04T17:16:08.028Z,100544.00
2022-11-04T17:18:35.664Z,100546.94
2022-11-04T17:21:06.708Z,100547.38
2022-11-04T17:23:34.056Z,100542.91
2022-11-04T17:26:01.484Z,100550.78
2022-11-04T17:28:28.654Z,100553.22
2022-11-04T17:30:55.547Z,100558.03
2022-11-04T17:33:22.727Z,100555.03
2022-11-04T17:35:51.670Z,100567.16
2022-11-04T17:38:19.500Z,100561.44
2022-11-04T17:41:05.352Z,100559.75
2022-11-04T17:43:51.040Z,100562.94
2022-11-04T17:46:36.955Z,100564.31
2022-11-04T17:49:07.392Z,100571.03
2022-11-04T17:51:35.181Z,100564.53
2022-11-04T17:54:02.281Z,100561.66
2022-11-04T17:56:29.287Z,100557.09
2022-11-04T17:58:56.173Z,100562.94
2022-11-04T18:01:24.100Z,100556.66
2022-11-04T18:03:52.889Z,100554.75
2022-11-04T18:06:21.653Z,100571.34
2022-11-04T18:08:49.342Z,100574.63
2022-11-04T18:11:36.305Z,100581.34
2022-11-04T18:14:03.285Z,100569.34
2022-11-04T18:16:30.577Z,100572.66
2022-11-04T18:18:59.891Z,100573.16
2022-11-04T18:21:28.107Z,100574.63
2022-11-04T18:23:55.663Z,100577.09
2022-11-04T18:26:22.655Z,100582.19
2022-11-04T18:28:49.848Z,100586.22
2022-11-04T18:31:48.784Z,100583.22
2022-11-04T18:34:19.269Z,100580.34
2022-11-04T18:36:48.240Z,100581.72
2022-11-04T18:39:17.124Z,100585.03
2022-11-04T18:41:44.357Z,100587.56
2022-11-04T18:44:22.881Z,100589.88
2022-11-04T18:46:50.652Z,100591.47
2022-11-04T18:49:18.392Z,100567.44
2022-11-04T18:51:45.745Z,100586.78
2022-11-04T18:54:13.745Z,100589.44
2022-11-04T18:56:41.265Z,100584.84
2022-11-04T18:59:13.162Z,100589.44
2022-11-04T19:01:41.169Z,100593.06
2022-11-04T19:04:08.695Z,100595.03
2022-11-04T19:06:41.947Z,100600.56
2022-11-04T19:09:44.936Z,100601.84
2022-11-04T19:12:18.347Z,100604.72
2022-11-04T19:14:48.419Z,100607.06
2022-11-04T19:17:15.775Z,100601.41
2022-11-04T19:19:43.135Z,100594.16
2022-11-04T19:22:12.090Z,100592.66
2022-11-04T19:24:40.002Z,100595.84
2022-11-04T19:27:07.988Z,100588.81
2022-11-04T19:29:35.145Z,100590.41
2022-11-04T19:32:02.259Z,100593.81
2022-11-04T19:34:29.557Z,100598.16
2022-11-04T19:36:56.668Z,100599.44
2022-11-04T19:39:23.816Z,100600.03
2022-11-04T19:42:09.525Z,100597.28
2022-11-04T19:44:36.852Z,100587.88
2022-11-04T19:47:05.243Z,100593.94
2022-11-04T19:49:33.274Z,100591.50
2022-11-04T19:52:01.163Z,100582.78
2022-11-04T19:54:29.709Z,100596.16
2022-11-04T19:56:57.112Z,100595.94
2022-11-04T19:59:24.757Z,100591.56
2022-11-04T20:01:52.270Z,100593.16
2022-11-04T20:04:20.187Z,100599.03
2022-11-04T20:06:47.898Z,100586.56
2022-11-04T20:09:15.776Z,100595.28
2022-11-04T20:12:01.996Z,100591.66
2022-11-04T20:14:29.846Z,100601.97
2022-11-04T20:17:00.675Z,100601.88
2022-11-04T20:19:28.461Z,100599.94
2022-11-04T20:21:55.670Z,100599.94
2022-11-04T20:24:25.428Z,100596.81
2022-11-04T20:26:54.844Z,100598.41
2022-11-04T20:29:23.119Z,100601.69
2022-11-04T20:31:50.408Z,100601.56
2022-11-04T20:34:18.437Z,100606.91
2022-11-04T20:36:47.807Z,100600.28
2022-11-04T20:39:17.936Z,100608.47
2022-11-04T20:41:47.023Z,100608.13
2022-11-04T20:44:16.179Z,100619.63
2022-11-04T20:46:44.540Z,100617.59
2022-11-04T20:49:14.432Z,100610.91
2022-11-04T20:51:50.231Z,100609.66
2022-11-04T20:54:23.013Z,100612.53
2022-11-04T20:56:50.244Z,100617.28
2022-11-04T20:59:18.871Z,100616.13
2022-11-04T21:01:52.377Z,100615.16
2022-11-04T21:04:22.718Z,100616.78
2022-11-04T21:06:51.792Z,100617.00
2022-11-04T21:09:21.243Z,100612.88
2022-11-04T21:11:52.512Z,100626.38
2022-11-04T21:14:21.625Z,100626.81
2022-11-04T21:16:50.511Z,100626.94
2022-11-04T21:19:18.212Z,100634.25
2022-11-04T21:21:47.492Z,100631.19
2022-11-04T21:24:16.675Z,100636.09
2022-11-04T21:26:46.440Z,100637.03
2022-11-04T21:29:16.987Z,100638.00
2022-11-04T21:31:46.163Z,100638.88
2022-11-04T21:34:14.873Z,100638.22
2022-11-04T21:36:43.107Z,100642.69
2022-11-04T21:39:11.477Z,100645.88
2022-11-04T21:41:39.594Z,100652.91
2022-11-04T21:44:14.096Z,100647.38
2022-11-04T21:46:41.640Z,100639.28
2022-11-04T21:49:11.621Z,100645.66
2022-11-04T21:51:39.164Z,100653.97
2022-11-04T21:54:07.633Z,100646.06
2022-11-04T21:56:35.907Z,100638.44
2022-11-04T21:59:05.145Z,100633.97
2022-11-04T22:01:37.022Z,100636.44
2022-11-04T22:04:04.728Z,100625.22
2022-11-04T22:06:35.503Z,100631.19
2022-11-04T22:09:04.062Z,100635.56
2022-11-04T22:11:32.653Z,100638.16
2022-11-04T22:14:02.121Z,100636.56
2022-11-04T22:16:31.874Z,100650.25
2022-11-04T22:19:06.289Z,100643.78
2022-11-04T22:21:33.912Z,100651.97
2022-11-04T22:24:01.785Z,100648.97
2022-11-04T22:26:31.472Z,100641.31
2022-11-04T22:28:59.801Z,100642.25
2022-11-04T22:31:30.387Z,100630.34
2022-11-04T22:33:58.287Z,100626.94
2022-11-04T22:36:26.489Z,100626.38
2022-11-04T22:38:54.307Z,100615.03
2022-11-04T22:41:28.626Z,100612.88
2022-11-04T22:43:59.468Z,100610.84
2022-11-04T22:46:28.935Z,100607.78
2022-11-04T22:48:56.519Z,100607.03
2022-11-04T22:51:23.913Z,100600.22
2022-11-04T22:54:00.023Z,100603.19
2022-11-04T22:56:28.589Z,100602.44
2022-11-04T22:58:55.606Z,100600.91
2022-11-04T23:01:23.366Z,100597.53
2022-11-04T23:03:53.792Z,100600.38
2022-11-04T23:06:20.831Z,100595.41
2022-11-04T23:08:48.060Z,100590.34
2022-11-04T23:11:39.357Z,100592.34
2022-11-04T23:14:25.035Z,100584.09
2022-11-04T23:17:11.279Z,100605.31
2022-11-04T23:19:39.491Z,100593.03
2022-11-04T23:22:26.544Z,100606.47
2022-11-04T23:25:06.800Z,100605.94
2022-11-04T23:27:53.597Z,100592.19
2022-11-04T23:30:21.567Z,100597.59
2022-11-04T23:33:00.592Z,100596.09
2022-11-04T23:35:55.434Z,100598.00
2022-11-04T23:38:22.956Z,100599.91
2022-11-04T23:41:19.626Z,100591.19
2022-11-04T23:43:46.661Z,100593.28
2022-11-04T23:46:35.395Z,100597.06
2022-11-04T23:49:23.245Z,100593.56
2022-11-04T23:52:08.789Z,100590.28
2022-11-04T23:55:04.889Z,100589.50
2022-11-04T23:57:50.212Z,100585.34
